TimeCDT,TemperatureF,Dew PointF,Humidity,Sea Level PressureIn,VisibilityMPH,Wind Direction,Wind SpeedMPH,Gust SpeedMPH,PrecipitationIn,Events,Conditions,WindDirDegrees,DateUTC
12:30 AM,69.8,66.2,88,30.04,5.0,SE,5.8,-,0.02,Rain,Light Rain,130,2013-06-16 05:30:00
12:41 AM,69.8,66.2,88,30.03,2.0,ESE,9.2,-,0.14,Rain,Heavy Rain,110,2013-06-16 05:41:00
12:49 AM,69.8,66.2,88,30.03,5.0,SE,8.1,-,0.22,Rain,Light Rain,140,2013-06-16 05:49:00
12:51 AM,69.1,66.0,90,30.00,5.0,SSE,8.1,-,0.22,Rain,Light Rain,160,2013-06-16 05:51:00
1:51 AM,70.0,66.0,87,29.96,10.0,ESE,4.6,-,0.09,,Overcast,120,2013-06-16 06:51:00
2:51 AM,70.0,66.9,90,29.96,10.0,SSE,5.8,-,N/A,,Overcast,160,2013-06-16 07:51:00
3:51 AM,70.0,66.9,90,29.95,8.0,SW,6.9,-,N/A,,Overcast,220,2013-06-16 08:51:00
4:51 AM,70.0,66.9,90,29.96,9.0,South,10.4,-,0.01,Rain,Light Rain,170,2013-06-16 09:51:00
5:51 AM,70.0,66.0,87,29.97,10.0,South,4.6,-,0.01,,Mostly Cloudy,170,2013-06-16 10:51:00
6:51 AM,71.1,66.9,87,29.96,9.0,SSE,8.1,-,0.00,Rain,Light Rain,150,2013-06-16 11:51:00
7:51 AM,71.1,66.0,84,29.98,9.0,SSE,8.1,-,0.00,,Overcast,150,2013-06-16 12:51:00
8:51 AM,73.0,66.9,81,29.98,10.0,South,6.9,-,N/A,,Mostly Cloudy,170,2013-06-16 13:51:00
9:51 AM,73.0,66.9,81,29.99,9.0,Calm,Calm,-,0.00,Rain,Light Rain,0,2013-06-16 14:51:00
10:51 AM,75.0,68.0,79,29.97,10.0,South,4.6,-,0.00,,Mostly Cloudy,180,2013-06-16 15:51:00
11:51 AM,75.9,68.0,76,29.99,10.0,SSW,5.8,-,N/A,,Mostly Cloudy,200,2013-06-16 16:51:00
12:51 PM,75.9,69.1,79,29.98,10.0,SSW,5.8,-,0.00,,Overcast,210,2013-06-16 17:51:00
1:51 PM,81.0,70.0,69,29.96,10.0,SW,9.2,-,N/A,,Mostly Cloudy,230,2013-06-16 18:51:00
2:51 PM,84.0,69.1,61,29.94,10.0,SW,9.2,19.6,N/A,,Mostly Cloudy,230,2013-06-16 19:51:00
3:51 PM,86.0,70.0,59,29.91,10.0,Variable,6.9,-,N/A,,Scattered Clouds,0,2013-06-16 20:51:00
4:51 PM,87.1,70.0,57,29.91,10.0,West,10.4,-,N/A,,Mostly Cloudy,260,2013-06-16 21:51:00
5:51 PM,82.9,71.1,67,29.91,10.0,North,4.6,-,N/A,,Mostly Cloudy,350,2013-06-16 22:51:00
6:51 PM,82.9,71.1,67,29.90,10.0,NNE,5.8,-,N/A,,Mostly Cloudy,20,2013-06-16 23:51:00
7:51 PM,81.0,72.0,74,29.91,10.0,ENE,4.6,-,N/A,,Mostly Cloudy,70,2013-06-17 00:51:00
8:51 PM,81.0,70.0,69,29.91,10.0,East,5.8,-,N/A,,Overcast,80,2013-06-17 01:51:00
9:51 PM,81.0,70.0,69,29.92,10.0,Calm,Calm,-,N/A,,Overcast,0,2013-06-17 02:51:00
10:09 PM,80.6,69.8,70,29.97,10.0,Calm,Calm,-,0.00,Rain-Thunderstorm,Light Thunderstorms and Rain,0,2013-06-17 03:09:00
10:51 PM,73.0,66.9,81,29.94,10.0,SW,5.8,-,0.13,Rain,Light Rain,220,2013-06-17 03:51:00
11:51 PM,73.0,68.0,84,29.92,10.0,Calm,Calm,-,0.00,,Mostly Cloudy,0,2013-06-17 04:51:00